createdAt,value
2022-09-23T00:01:22.001Z,94.60
2022-09-23T00:03:49.588Z,94.40
2022-09-23T00:06:19.732Z,94.20
2022-09-23T00:08:49.841Z,94.40
2022-09-23T00:11:25.820Z,94.40
2022-09-23T00:13:57.216Z,94.40
2022-09-23T00:16:31.089Z,94.50
2022-09-23T00:18:58.598Z,94.20
2022-09-23T00:21:26.043Z,93.80
2022-09-23T00:23:54.305Z,93.90
2022-09-23T00:26:22.988Z,93.70
2022-09-23T00:28:51.097Z,93.80
2022-09-23T00:31:24.475Z,94.00
2022-09-23T00:34:00.037Z,93.80
2022-09-23T00:36:29.064Z,93.90
2022-09-23T00:38:56.835Z,93.70
2022-09-23T00:41:24.970Z,93.60
2022-09-23T00:43:58.486Z,93.90
2022-09-23T00:46:43.754Z,94.00
2022-09-23T00:49:16.137Z,94.20
2022-09-23T00:51:59.137Z,94.40
2022-09-23T00:54:28.195Z,94.40
2022-09-23T00:56:56.822Z,94.40
2022-09-23T00:59:24.776Z,93.80
2022-09-23T01:01:56.425Z,93.50
2022-09-23T01:04:27.111Z,93.90
2022-09-23T01:06:54.653Z,94.00
2022-09-23T01:09:23.979Z,94.00
2022-09-23T01:12:03.719Z,94.20
2022-09-23T01:14:55.232Z,93.90
2022-09-23T01:17:35.490Z,93.90
2022-09-23T01:20:38.635Z,94.00
2022-09-23T01:23:27.191Z,94.10
2022-09-23T01:26:25.007Z,94.20
2022-09-23T01:29:26.516Z,94.20
2022-09-23T01:32:20.528Z,94.20
2022-09-23T01:34:55.723Z,94.10
2022-09-23T01:37:33.733Z,94.20
2022-09-23T01:40:48.560Z,94.40
2022-09-23T01:43:36.136Z,94.60
2022-09-23T01:46:08.364Z,94.20
2022-09-23T01:48:49.998Z,94.30
2022-09-23T01:51:27.365Z,94.40
2022-09-23T01:54:06.821Z,94.40
2022-09-23T01:56:41.197Z,94.20
2022-09-23T01:59:17.976Z,94.60
2022-09-23T02:02:16.894Z,94.90
2022-09-23T02:05:10.783Z,94.80
2022-09-23T02:07:51.900Z,94.80
2022-09-23T02:10:47.435Z,94.50
2022-09-23T02:13:53.584Z,94.50
2022-09-23T02:16:26.863Z,94.50
2022-09-23T02:19:11.986Z,94.20
2022-09-23T02:21:43.819Z,94.00
2022-09-23T02:24:22.219Z,94.10
2022-09-23T02:26:52.230Z,94.00
2022-09-23T02:29:24.937Z,93.60
2022-09-23T02:31:57.755Z,93.30
2022-09-23T02:34:35.563Z,93.90
2022-09-23T02:37:21.721Z,94.10
2022-09-23T02:39:55.582Z,94.20
2022-09-23T02:42:32.111Z,93.30
2022-09-23T02:44:59.573Z,93.50
2022-09-23T02:47:31.615Z,93.30
2022-09-23T02:49:59.329Z,93.20
2022-09-23T02:52:27.527Z,93.20
2022-09-23T02:54:55.032Z,93.50
2022-09-23T02:57:22.485Z,93.70
2022-09-23T02:59:50.400Z,93.50
2022-09-23T03:02:40.273Z,94.20
2022-09-23T03:05:25.256Z,93.70
2022-09-23T03:08:07.489Z,93.90
2022-09-23T03:10:43.180Z,94.20
2022-09-23T03:13:32.115Z,94.00
2022-09-23T03:16:15.626Z,94.00
2022-09-23T03:18:52.094Z,94.10
2022-09-23T03:22:01.320Z,94.30
2022-09-23T03:24:32.498Z,94.40
2022-09-23T03:27:04.681Z,94.40
2022-09-23T03:29:37.726Z,94.40
2022-09-23T03:32:08.448Z,94.70
2022-09-23T03:34:38.958Z,94.60
2022-09-23T03:37:31.680Z,95.00
2022-09-23T03:40:20.931Z,94.80
2022-09-23T03:42:49.383Z,94.60
2022-09-23T03:45:22.903Z,94.20
2022-09-23T03:47:50.582Z,94.00
2022-09-23T03:50:18.558Z,94.10
2022-09-23T03:52:46.918Z,94.20
2022-09-23T03:55:14.386Z,94.00
2022-09-23T03:57:41.774Z,94.20
2022-09-23T04:00:10.054Z,94.30
2022-09-23T04:02:37.380Z,94.30
2022-09-23T04:05:05.494Z,94.30
2022-09-23T04:07:32.968Z,94.20
2022-09-23T04:10:00.740Z,94.20
2022-09-23T04:12:28.173Z,94.40
2022-09-23T04:14:55.615Z,94.40
2022-09-23T04:17:23.149Z,94.50
2022-09-23T04:19:50.662Z,94.20
2022-09-23T04:22:18.018Z,94.20
2022-09-23T04:24:45.389Z,94.00
2022-09-23T04:27:12.817Z,94.20
2022-09-23T04:29:40.237Z,94.30
2022-09-23T04:32:07.784Z,94.10
2022-09-23T04:34:35.114Z,94.10
2022-09-23T04:37:02.464Z,94.10
2022-09-23T04:39:30.025Z,94.10
2022-09-23T04:41:57.343Z,94.20
2022-09-23T04:44:24.870Z,94.20
2022-09-23T04:46:52.653Z,93.90
2022-09-23T04:49:20.219Z,93.50
2022-09-23T04:51:47.956Z,93.50
2022-09-23T04:54:15.367Z,93.80
2022-09-23T04:56:43.092Z,93.70
2022-09-23T04:59:10.520Z,95.40
2022-09-23T05:01:38.651Z,94.10
2022-09-23T05:04:08.981Z,92.40
2022-09-23T05:06:37.211Z,91.70
2022-09-23T05:09:09.105Z,92.00
2022-09-23T05:11:36.670Z,92.30
2022-09-23T05:14:04.164Z,92.10
2022-09-23T05:16:31.701Z,92.30
2022-09-23T05:18:59.879Z,92.70
2022-09-23T05:21:29.323Z,92.90
2022-09-23T05:24:00.952Z,93.60
2022-09-23T05:26:31.456Z,93.30
2022-09-23T05:29:00.036Z,93.60
2022-09-23T05:31:30.026Z,93.80
2022-09-23T05:33:59.566Z,93.60
2022-09-23T05:36:28.158Z,93.90
2022-09-23T05:38:57.116Z,93.70
2022-09-23T05:41:26.361Z,93.80
2022-09-23T05:43:55.650Z,93.70
2022-09-23T05:46:30.894Z,93.40
2022-09-23T05:49:02.588Z,93.50
2022-09-23T05:51:31.963Z,93.00
2022-09-23T05:54:00.704Z,93.60
2022-09-23T05:56:29.116Z,93.80
2022-09-23T05:58:58.770Z,93.90
2022-09-23T06:01:29.443Z,93.90
2022-09-23T06:03:58.760Z,93.50
2022-09-23T06:06:32.041Z,93.30
2022-09-23T06:09:00.530Z,93.10
2022-09-23T06:11:30.917Z,92.60
2022-09-23T06:14:02.993Z,92.60
2022-09-23T06:16:33.007Z,92.10
2022-09-23T06:19:06.197Z,91.80
2022-09-23T06:21:39.263Z,91.60
2022-09-23T06:24:07.739Z,91.50
2022-09-23T06:26:37.805Z,91.00
2022-09-23T06:29:11.812Z,90.50
2022-09-23T06:31:41.367Z,90.40
2022-09-23T06:34:13.527Z,90.70
2022-09-23T06:36:46.426Z,91.00
2022-09-23T06:39:17.319Z,91.00
2022-09-23T06:41:45.642Z,90.80
2022-09-23T06:44:14.277Z,90.00
2022-09-23T06:46:41.885Z,88.60
2022-09-23T06:49:09.718Z,86.40
2022-09-23T06:51:37.079Z,85.30
2022-09-23T06:54:04.996Z,83.00
2022-09-23T06:56:37.799Z,82.00
2022-09-23T06:59:06.966Z,83.00
2022-09-23T07:01:35.100Z,81.90
2022-09-23T07:04:02.797Z,80.20
2022-09-23T07:06:30.196Z,79.50
2022-09-23T07:08:57.557Z,79.10
2022-09-23T07:11:24.836Z,77.50
2022-09-23T07:13:52.134Z,77.30
2022-09-23T07:16:19.593Z,77.30
2022-09-23T07:18:47.562Z,77.70
2022-09-23T07:21:17.468Z,77.90
2022-09-23T07:23:46.987Z,78.60
2022-09-23T07:26:16.266Z,77.80
2022-09-23T07:28:44.077Z,77.40
2022-09-23T07:31:14.362Z,76.90
2022-09-23T07:33:45.386Z,76.70
2022-09-23T07:36:17.506Z,77.80
2022-09-23T07:38:46.466Z,76.60
2022-09-23T07:41:17.227Z,77.20
2022-09-23T07:43:45.726Z,75.30
2022-09-23T07:46:17.092Z,74.50
2022-09-23T07:48:46.159Z,72.70
2022-09-23T07:51:20.536Z,72.40
2022-09-23T07:53:49.587Z,74.30
2022-09-23T07:56:19.248Z,75.50
2022-09-23T07:59:00.559Z,76.60
2022-09-23T08:01:36.883Z,77.10
2022-09-23T08:04:07.509Z,75.80
2022-09-23T08:06:35.000Z,76.30
2022-09-23T08:09:02.766Z,75.90
2022-09-23T08:11:30.568Z,76.60
2022-09-23T08:13:58.216Z,77.10
2022-09-23T08:16:25.535Z,77.00
2022-09-23T08:18:52.992Z,76.50
2022-09-23T08:21:21.779Z,76.80
2022-09-23T08:23:51.092Z,75.80
2022-09-23T08:26:22.007Z,75.90
2022-09-23T08:28:52.973Z,75.30
2022-09-23T08:31:23.302Z,72.30
2022-09-23T08:33:58.260Z,72.30
2022-09-23T08:36:26.270Z,69.90
2022-09-23T08:38:53.740Z,70.50
2022-09-23T08:41:33.270Z,72.20
2022-09-23T08:44:07.629Z,71.20
2022-09-23T08:46:44.149Z,70.20
2022-09-23T08:49:17.751Z,70.20
2022-09-23T08:51:47.955Z,69.40
2022-09-23T08:54:18.511Z,66.10
2022-09-23T08:56:51.669Z,65.90
2022-09-23T08:59:22.829Z,65.30
2022-09-23T09:01:53.951Z,65.80
2022-09-23T09:04:35.635Z,66.50
2022-09-23T09:07:35.172Z,66.90
2022-09-23T09:10:25.901Z,64.30
2022-09-23T09:13:02.119Z,63.20
2022-09-23T09:15:29.654Z,63.60
2022-09-23T09:18:01.429Z,63.90
2022-09-23T09:20:50.709Z,63.30
2022-09-23T09:23:31.271Z,63.30
2022-09-23T09:26:02.029Z,61.80
2022-09-23T09:28:39.911Z,62.40
2022-09-23T09:31:32.276Z,60.90
2022-09-23T09:34:21.718Z,61.80
2022-09-23T09:37:07.653Z,61.80
2022-09-23T09:39:36.418Z,61.00
2022-09-23T09:42:06.762Z,61.90
2022-09-23T09:44:37.033Z,61.70
2022-09-23T09:47:40.788Z,60.20
2022-09-23T09:50:21.814Z,60.00
2022-09-23T09:52:49.777Z,60.70
2022-09-23T09:55:29.829Z,59.60
2022-09-23T09:58:06.098Z,59.90
2022-09-23T10:00:43.060Z,62.20
2022-09-23T10:03:13.776Z,62.30
2022-09-23T10:05:47.015Z,62.20
2022-09-23T10:08:35.885Z,63.00
2022-09-23T10:11:21.333Z,64.70
2022-09-23T10:14:19.234Z,65.10
2022-09-23T10:17:02.362Z,64.70
2022-09-23T10:19:30.332Z,64.60
2022-09-23T10:22:00.728Z,64.40
2022-09-23T10:24:32.575Z,63.60
2022-09-23T10:27:12.241Z,63.70
2022-09-23T10:29:46.953Z,63.80
2022-09-23T10:32:31.422Z,63.70
2022-09-23T10:35:09.415Z,65.20
2022-09-23T10:37:53.373Z,65.20
2022-09-23T10:40:49.342Z,65.40
2022-09-23T10:44:07.355Z,64.20
2022-09-23T10:46:40.147Z,63.60
2022-09-23T10:49:32.684Z,64.90
2022-09-23T10:52:32.142Z,63.00
2022-09-23T10:55:28.376Z,64.70
2022-09-23T10:58:05.168Z,64.50
2022-09-23T11:00:56.361Z,64.90
2022-09-23T11:03:41.967Z,65.10
2022-09-23T11:06:17.709Z,65.20
2022-09-23T11:09:22.349Z,66.40
2022-09-23T11:11:58.954Z,66.00
2022-09-23T11:14:42.641Z,66.90
2022-09-23T11:17:36.912Z,66.30
2022-09-23T11:20:25.295Z,64.40
2022-09-23T11:23:32.775Z,61.30
2022-09-23T11:26:05.675Z,65.40
2022-09-23T11:28:55.477Z,59.90
2022-09-23T11:31:32.115Z,60.80
2022-09-23T11:34:02.206Z,62.90
2022-09-23T11:36:52.717Z,63.10
2022-09-23T11:39:23.648Z,63.30
2022-09-23T11:41:56.083Z,66.20
2022-09-23T11:44:26.881Z,67.50
2022-09-23T11:47:09.359Z,68.90
2022-09-23T11:49:46.858Z,69.30
2022-09-23T11:52:38.003Z,67.80
2022-09-23T11:55:32.206Z,66.60
2022-09-23T11:58:26.052Z,66.40
2022-09-23T12:01:02.917Z,65.90
2022-09-23T12:03:45.877Z,64.60
2022-09-23T12:06:23.981Z,63.60
2022-09-23T12:08:57.181Z,61.70
2022-09-23T12:11:28.802Z,61.30
2022-09-23T12:14:19.742Z,57.10
2022-09-23T12:17:04.432Z,56.30
2022-09-23T12:19:40.412Z,57.00
2022-09-23T12:22:32.717Z,56.60
2022-09-23T12:25:18.858Z,57.20
2022-09-23T12:27:53.403Z,56.80
2022-09-23T12:30:24.148Z,56.30
2022-09-23T12:32:52.076Z,55.90
2022-09-23T12:35:36.294Z,58.90
2022-09-23T12:38:12.936Z,59.40
2022-09-23T12:40:45.163Z,61.10
2022-09-23T12:43:31.907Z,62.30
2022-09-23T12:46:19.807Z,64.40
2022-09-23T12:49:00.800Z,65.30
2022-09-23T12:51:30.362Z,65.50
2022-09-23T12:54:15.612Z,66.00
2022-09-23T12:56:43.573Z,66.60
2022-09-23T12:59:16.861Z,66.50
2022-09-23T13:01:45.364Z,66.90
2022-09-23T13:05:38.656Z,67.70
2022-09-23T13:08:12.537Z,67.80
2022-09-23T13:10:49.943Z,68.10
2022-09-23T13:13:22.482Z,68.40
2022-09-23T13:15:50.056Z,64.00
2022-09-23T13:18:23.058Z,63.70
2022-09-23T13:20:52.664Z,64.30
2022-09-23T13:23:30.569Z,65.20
2022-09-23T13:26:10.135Z,65.30
2022-09-23T13:28:55.268Z,64.70
2022-09-23T13:31:23.143Z,64.10
2022-09-23T13:34:02.494Z,62.60
2022-09-23T13:36:29.824Z,61.90
2022-09-23T13:39:24.866Z,61.90
2022-09-23T13:42:01.079Z,62.60
2022-09-23T13:44:29.112Z,63.00
2022-09-23T13:47:00.020Z,63.10
2022-09-23T13:49:28.738Z,61.70
2022-09-23T13:51:57.829Z,60.90
2022-09-23T13:54:32.338Z,61.60
2022-09-23T13:57:00.829Z,61.50
2022-09-23T13:59:37.884Z,61.10
2022-09-23T14:02:13.889Z,58.10
2022-09-23T14:04:41.809Z,60.00
2022-09-23T14:07:13.251Z,59.20
2022-09-23T14:09:54.358Z,58.60
2022-09-23T14:12:25.357Z,60.10
2022-09-23T14:14:53.500Z,60.70
2022-09-23T14:17:25.761Z,61.20
2022-09-23T14:19:53.217Z,63.20
2022-09-23T14:22:30.632Z,60.80
2022-09-23T14:24:58.857Z,58.60
2022-09-23T14:27:38.204Z,60.60
2022-09-23T14:30:09.687Z,61.20
2022-09-23T14:32:39.962Z,61.80
2022-09-23T14:35:20.064Z,62.20
2022-09-23T14:38:11.427Z,63.40
2022-09-23T14:41:14.720Z,65.10
2022-09-23T14:44:04.523Z,65.60
2022-09-23T14:46:37.605Z,65.70
2022-09-23T14:49:14.867Z,66.10
2022-09-23T14:51:54.160Z,66.50
2022-09-23T14:54:41.805Z,66.60
2022-09-23T14:57:24.763Z,66.20
2022-09-23T15:00:08.584Z,66.90
2022-09-23T15:02:44.812Z,66.40
2022-09-23T15:05:24.330Z,66.70
2022-09-23T15:07:53.624Z,67.10
2022-09-23T15:10:28.495Z,68.40
2022-09-23T15:13:03.629Z,69.00
2022-09-23T15:15:31.358Z,68.10
2022-09-23T15:18:10.256Z,68.20
2022-09-23T15:20:37.841Z,68.50
2022-09-23T15:23:05.471Z,68.80
2022-09-23T15:25:43.690Z,69.40
2022-09-23T15:28:11.357Z,68.60
2022-09-23T15:30:39.850Z,67.20
2022-09-23T15:33:09.281Z,68.00
2022-09-23T15:35:36.927Z,68.60
2022-09-23T15:38:04.212Z,68.60
2022-09-23T15:40:34.258Z,69.40
2022-09-23T15:43:24.088Z,70.00
2022-09-23T15:45:53.504Z,70.60
2022-09-23T15:48:27.817Z,71.70
2022-09-23T15:50:55.984Z,72.40
2022-09-23T15:53:28.148Z,73.20
2022-09-23T15:55:56.127Z,74.30
2022-09-23T15:58:25.587Z,75.20
2022-09-23T16:00:56.762Z,75.90
2022-09-23T16:03:29.151Z,77.80
2022-09-23T16:06:00.931Z,78.10
2022-09-23T16:08:30.427Z,78.50
2022-09-23T16:10:58.668Z,78.40
2022-09-23T16:13:26.132Z,78.80
2022-09-23T16:15:56.453Z,77.90
2022-09-23T16:18:23.970Z,77.40
2022-09-23T16:20:51.500Z,77.10
2022-09-23T16:23:34.955Z,77.10
2022-09-23T16:26:19.049Z,76.90
2022-09-23T16:28:48.848Z,77.80
2022-09-23T16:31:17.644Z,77.80
2022-09-23T16:33:47.427Z,78.00
2022-09-23T16:36:34.088Z,78.60
2022-09-23T16:39:04.512Z,78.70
2022-09-23T16:41:35.855Z,79.20
2022-09-23T16:44:09.800Z,79.30
2022-09-23T16:46:37.538Z,79.90
2022-09-23T16:49:05.643Z,79.90
2022-09-23T16:51:41.330Z,80.60
2022-09-23T16:54:12.273Z,81.00
2022-09-23T16:56:45.490Z,81.60
2022-09-23T16:59:15.658Z,81.60
2022-09-23T17:02:01.855Z,81.80
2022-09-23T17:04:30.125Z,82.20
2022-09-23T17:06:58.030Z,83.00
2022-09-23T17:09:28.356Z,83.70
2022-09-23T17:12:26.287Z,84.20
2022-09-23T17:14:54.014Z,84.50
2022-09-23T17:17:22.515Z,85.10
2022-09-23T17:19:50.710Z,85.20
2022-09-23T17:22:18.082Z,85.10
2022-09-23T17:24:45.631Z,85.50
2022-09-23T17:27:17.191Z,85.50
2022-09-23T17:29:45.182Z,85.60
2022-09-23T17:32:13.812Z,85.70
2022-09-23T17:34:43.252Z,85.80
2022-09-23T17:37:11.352Z,85.90
2022-09-23T17:39:38.758Z,85.90
2022-09-23T17:42:06.736Z,85.90
2022-09-23T17:44:34.362Z,85.70
2022-09-23T17:47:03.969Z,85.80
2022-09-23T17:49:35.609Z,86.00
2022-09-23T17:52:05.867Z,86.50
2022-09-23T17:54:34.231Z,87.10
2022-09-23T17:57:03.915Z,87.20
2022-09-23T17:59:33.126Z,87.00
2022-09-23T18:02:01.075Z,87.10
2022-09-23T18:04:28.931Z,86.90
2022-09-23T18:06:57.176Z,86.80
2022-09-23T18:09:24.916Z,87.20
2022-09-23T18:11:52.766Z,87.40
2022-09-23T18:14:22.451Z,87.80
2022-09-23T18:16:52.794Z,87.50
2022-09-23T18:19:22.844Z,87.60
2022-09-23T18:21:56.885Z,87.90
2022-09-23T18:24:32.363Z,88.10
2022-09-23T18:27:00.774Z,88.60
2022-09-23T18:29:29.043Z,89.30
2022-09-23T18:31:56.880Z,88.60
2022-09-23T18:34:24.792Z,88.00
2022-09-23T18:36:52.477Z,87.90
2022-09-23T18:39:20.142Z,88.30
2022-09-23T18:41:50.832Z,88.50
2022-09-23T18:44:20.432Z,88.50
2022-09-23T18:46:49.090Z,88.70
2022-09-23T18:49:37.956Z,88.50
2022-09-23T18:52:11.132Z,88.40
2022-09-23T18:54:42.004Z,88.70
2022-09-23T18:57:13.484Z,88.60
2022-09-23T18:59:41.906Z,89.00
2022-09-23T19:02:10.351Z,89.00
2022-09-23T19:04:38.446Z,89.00
2022-09-23T19:07:07.199Z,89.40
2022-09-23T19:09:34.818Z,89.30
2022-09-23T19:12:03.607Z,89.30
2022-09-23T19:14:30.937Z,89.70
2022-09-23T19:16:59.175Z,89.80
2022-09-23T19:19:30.416Z,89.70
2022-09-23T19:21:59.208Z,90.20
2022-09-23T19:24:28.893Z,90.00
2022-09-23T19:26:57.305Z,90.30
2022-09-23T19:29:25.398Z,90.20
2022-09-23T19:31:53.183Z,90.20
2022-09-23T19:34:26.396Z,90.10
2022-09-23T19:36:57.991Z,90.20
2022-09-23T19:39:28.729Z,89.90
2022-09-23T19:41:57.110Z,90.10
2022-09-23T19:44:26.433Z,90.00
2022-09-23T19:46:56.825Z,90.00
2022-09-23T19:49:25.842Z,90.10
2022-09-23T19:51:56.241Z,89.90
2022-09-23T19:54:26.461Z,90.30
2022-09-23T19:56:53.812Z,90.50
2022-09-23T19:59:21.342Z,90.30
2022-09-23T20:01:49.158Z,90.60
2022-09-23T20:04:17.140Z,90.70
2022-09-23T20:06:46.218Z,90.90
2022-09-23T20:09:14.062Z,90.90
2022-09-23T20:11:43.332Z,91.10
2022-09-23T20:14:11.331Z,90.90
2022-09-23T20:16:38.659Z,90.80
2022-09-23T20:19:06.290Z,90.90
2022-09-23T20:21:34.651Z,90.80
2022-09-23T20:24:04.666Z,90.80
2022-09-23T20:26:50.664Z,90.70
2022-09-23T20:29:18.038Z,91.00
2022-09-23T20:31:45.450Z,90.80
2022-09-23T20:34:12.979Z,90.90
2022-09-23T20:36:41.955Z,90.60
2022-09-23T20:39:10.429Z,90.70
2022-09-23T20:41:39.510Z,91.00
2022-09-23T20:44:11.865Z,90.80
2022-09-23T20:46:40.419Z,91.20
2022-09-23T20:49:10.555Z,91.00
2022-09-23T20:51:38.315Z,91.30
2022-09-23T20:54:06.016Z,90.90
2022-09-23T20:56:33.731Z,91.30
2022-09-23T20:59:02.455Z,91.30
2022-09-23T21:01:32.222Z,91.50
2022-09-23T21:03:59.476Z,91.50
2022-09-23T21:06:26.699Z,91.90
2022-09-23T21:08:54.914Z,92.10
2022-09-23T21:11:22.766Z,92.20
2022-09-23T21:13:51.717Z,92.30
2022-09-23T21:16:22.874Z,92.00
2022-09-23T21:18:51.823Z,92.00
2022-09-23T21:21:20.218Z,92.00
2022-09-23T21:23:48.277Z,92.00
2022-09-23T21:26:21.552Z,91.90
2022-09-23T21:28:50.689Z,92.00
2022-09-23T21:31:23.677Z,92.00
2022-09-23T21:33:59.788Z,92.10
2022-09-23T21:36:29.089Z,92.00
2022-09-23T21:38:57.891Z,92.20
2022-09-23T21:41:25.955Z,92.20
2022-09-23T21:43:55.831Z,92.20
2022-09-23T21:46:24.196Z,92.20
2022-09-23T21:48:53.977Z,92.10
2022-09-23T21:51:25.374Z,92.30
2022-09-23T21:53:54.887Z,92.20
2022-09-23T21:56:25.362Z,92.10
2022-09-23T21:58:55.051Z,92.20
2022-09-23T22:01:25.001Z,92.40
2022-09-23T22:03:55.698Z,92.50
2022-09-23T22:06:27.239Z,92.40
2022-09-23T22:08:59.344Z,92.30
2022-09-23T22:11:49.101Z,92.10
2022-09-23T22:14:18.282Z,92.00
2022-09-23T22:16:46.634Z,92.20
2022-09-23T22:19:15.381Z,92.50
2022-09-23T22:21:45.273Z,92.30
2022-09-23T22:24:13.405Z,91.90
2022-09-23T22:26:43.529Z,92.20
2022-09-23T22:29:34.217Z,92.30
2022-09-23T22:32:21.487Z,92.10
2022-09-23T22:34:51.978Z,92.20
2022-09-23T22:37:25.916Z,92.10
2022-09-23T22:39:53.807Z,92.20
2022-09-23T22:42:24.113Z,92.70
2022-09-23T22:44:52.305Z,92.60
2022-09-23T22:47:20.744Z,92.60
2022-09-23T22:49:49.331Z,92.40
2022-09-23T22:52:21.345Z,92.10
2022-09-23T22:54:48.899Z,92.40
2022-09-23T22:57:16.462Z,92.60
2022-09-23T22:59:48.340Z,92.70
2022-09-23T23:02:20.326Z,92.70
2022-09-23T23:04:48.985Z,92.70
2022-09-23T23:07:21.595Z,92.50
2022-09-23T23:09:52.790Z,92.60
2022-09-23T23:12:21.564Z,92.50
2022-09-23T23:14:49.688Z,92.30
2022-09-23T23:17:17.786Z,92.50
2022-09-23T23:19:45.497Z,92.60
2022-09-23T23:22:13.004Z,92.80
2022-09-23T23:24:40.358Z,92.60
2022-09-23T23:27:07.866Z,92.80
2022-09-23T23:29:35.202Z,92.70
2022-09-23T23:32:02.798Z,92.70
2022-09-23T23:34:30.300Z,92.90
2022-09-23T23:36:57.627Z,92.90
2022-09-23T23:39:26.103Z,92.50
2022-09-23T23:41:58.207Z,92.30
2022-09-23T23:44:27.196Z,92.30
2022-09-23T23:46:55.661Z,92.50
2022-09-23T23:49:23.077Z,92.90
2022-09-23T23:51:50.582Z,92.80
2022-09-23T23:54:18.025Z,92.90
2022-09-23T23:56:45.813Z,93.10
2022-09-23T23:59:13.600Z,93.00
